createdAt,value
2019-02-14T00:01:50.701Z,50.83
2019-02-14T00:06:58.430Z,47.57
2019-02-14T00:12:06.054Z,49.26
2019-02-14T00:17:13.729Z,50.04
2019-02-14T00:22:22.382Z,59.34
2019-02-14T00:27:30.192Z,55.38
2019-02-14T00:32:37.837Z,58.93
2019-02-14T00:37:45.435Z,55.87
2019-02-14T00:42:53.109Z,51.19
2019-02-14T00:48:00.764Z,51.15
2019-02-14T00:53:08.469Z,48.06
2019-02-14T00:58:16.089Z,49.26
2019-02-14T01:03:23.728Z,46.36
2019-02-14T01:08:31.380Z,47.15
2019-02-14T01:13:39.069Z,47.86
2019-02-14T01:18:46.680Z,44.45
2019-02-14T01:23:54.397Z,45.74
2019-02-14T01:29:02.023Z,49.95
2019-02-14T01:34:09.700Z,45.28
2019-02-14T01:39:17.324Z,46.82
2019-02-14T01:44:25.060Z,47.12
2019-02-14T01:49:32.703Z,47.98
2019-02-14T01:54:40.422Z,52.36
2019-02-14T01:59:48.074Z,52.00
2019-02-14T02:04:59.368Z,49.44
2019-02-14T02:09:58.057Z,48.38
2019-02-14T02:15:05.734Z,51.14
2019-02-14T02:20:13.386Z,53.20
2019-02-14T02:25:21.020Z,51.22
2019-02-14T02:30:28.644Z,53.62
2019-02-14T02:35:36.558Z,52.49
2019-02-14T02:40:44.175Z,52.31
2019-02-14T02:45:51.866Z,51.46
2019-02-14T02:51:00.393Z,55.57
2019-02-14T02:56:08.025Z,54.97
2019-02-14T03:01:15.681Z,49.43
2019-02-14T03:06:23.571Z,49.16
2019-02-14T03:11:31.206Z,49.12
2019-02-14T03:16:38.884Z,50.30
2019-02-14T03:21:46.509Z,53.50
2019-02-14T03:26:54.981Z,53.17
2019-02-14T03:32:03.585Z,52.95
2019-02-14T03:37:11.274Z,55.84
2019-02-14T03:42:18.937Z,61.96
2019-02-14T03:47:28.215Z,60.39
2019-02-14T03:52:35.846Z,54.91
2019-02-14T03:57:43.561Z,56.20
2019-02-14T04:02:51.201Z,60.08
2019-02-14T04:07:58.853Z,52.13
2019-02-14T04:13:06.588Z,50.97
2019-02-14T04:18:14.231Z,52.85
2019-02-14T04:23:22.091Z,59.15
2019-02-14T04:28:29.729Z,52.28
2019-02-14T04:33:37.433Z,50.96
2019-02-14T04:38:45.085Z,51.30
2019-02-14T04:43:52.738Z,57.93
2019-02-14T04:49:00.425Z,51.66
2019-02-14T04:54:08.055Z,53.00
2019-02-14T04:59:15.792Z,53.74
2019-02-14T05:04:23.459Z,54.21
2019-02-14T05:09:31.200Z,52.30
2019-02-14T05:14:38.860Z,50.05
2019-02-14T05:19:46.533Z,43.82
2019-02-14T05:24:54.159Z,46.63
2019-02-14T05:30:01.856Z,47.16
2019-02-14T05:35:09.663Z,43.81
2019-02-14T05:40:17.287Z,52.54
2019-02-14T05:45:24.967Z,41.44
2019-02-14T05:50:32.616Z,44.20
2019-02-14T05:55:40.847Z,45.08
2019-02-14T06:00:49.040Z,43.05
2019-02-14T06:05:56.649Z,47.93
2019-02-14T06:11:04.346Z,44.61
2019-02-14T06:16:11.973Z,46.12
2019-02-14T06:21:20.020Z,45.71
2019-02-14T06:26:27.699Z,42.61
2019-02-14T06:31:35.358Z,48.40
2019-02-14T06:36:42.982Z,45.17
2019-02-14T06:41:50.678Z,46.20
2019-02-14T06:46:58.353Z,48.56
2019-02-14T06:52:06.061Z,48.47
2019-02-14T06:57:13.731Z,48.81
2019-02-14T07:02:21.412Z,46.20
2019-02-14T07:07:29.068Z,48.66
2019-02-14T07:12:36.722Z,49.48
2019-02-14T07:17:44.360Z,46.38
2019-02-14T07:22:52.018Z,49.79
2019-02-14T07:27:59.643Z,44.87
2019-02-14T07:33:07.353Z,44.46
2019-02-14T07:38:16.309Z,43.97
2019-02-14T07:43:24.012Z,42.66
2019-02-14T07:48:31.636Z,43.70
2019-02-14T07:53:39.269Z,42.33
2019-02-14T07:58:51.116Z,42.28
2019-02-14T08:03:49.224Z,37.81
2019-02-14T08:09:02.269Z,38.82
2019-02-14T08:13:58.345Z,35.28
2019-02-14T08:19:06.053Z,34.52
2019-02-14T08:24:13.717Z,34.46
2019-02-14T08:29:21.425Z,31.96
2019-02-14T08:34:29.065Z,32.77
2019-02-14T08:39:36.738Z,31.26
2019-02-14T08:44:44.393Z,29.14
2019-02-14T08:49:52.061Z,30.48
2019-02-14T08:54:59.686Z,29.81
2019-02-14T09:00:07.374Z,27.56
2019-02-14T09:05:15.013Z,24.87
2019-02-14T09:10:22.641Z,25.14
2019-02-14T09:15:30.336Z,25.68
2019-02-14T09:20:38.030Z,24.38
2019-02-14T09:25:45.742Z,25.29
2019-02-14T09:30:53.384Z,27.00
2019-02-14T09:36:01.102Z,24.40
2019-02-14T09:41:08.725Z,20.44
2019-02-14T09:46:16.442Z,22.12
2019-02-14T09:51:24.106Z,19.86
2019-02-14T09:56:31.797Z,19.99
2019-02-14T10:01:39.432Z,17.89
2019-02-14T10:06:47.093Z,18.71
2019-02-14T10:11:54.764Z,16.17
2019-02-14T10:17:02.428Z,18.14
2019-02-14T10:22:10.106Z,17.90
2019-02-14T10:27:17.745Z,19.33
2019-02-14T10:32:25.825Z,18.92
2019-02-14T10:37:33.524Z,19.52
2019-02-14T10:42:41.232Z,18.34
2019-02-14T10:47:48.885Z,16.71
2019-02-14T10:52:57.173Z,20.27
2019-02-14T10:58:04.801Z,19.32
2019-02-14T11:03:13.398Z,18.02
2019-02-14T11:08:21.005Z,18.21
2019-02-14T11:13:28.701Z,17.82
2019-02-14T11:18:43.991Z,17.33
2019-02-14T11:23:43.560Z,16.13
2019-02-14T11:28:51.238Z,15.59
2019-02-14T11:33:59.323Z,14.59
2019-02-14T11:39:06.972Z,13.64
2019-02-14T11:44:14.651Z,13.56
2019-02-14T11:49:23.516Z,11.63
2019-02-14T11:54:31.175Z,11.80
2019-02-14T11:59:40.539Z,11.09
2019-02-14T12:04:46.002Z,7.78
2019-02-14T12:09:53.656Z,9.94
2019-02-14T12:15:01.359Z,10.36
2019-02-14T12:20:12.366Z,9.97
2019-02-14T12:25:16.175Z,11.62
2019-02-14T12:30:23.865Z,12.42
2019-02-14T12:35:31.513Z,11.29
2019-02-14T12:40:39.181Z,9.51
2019-02-14T12:45:46.793Z,10.68
2019-02-14T12:50:54.450Z,10.85
2019-02-14T12:56:02.097Z,10.58
2019-02-14T13:01:09.748Z,10.35
2019-02-14T13:06:17.802Z,8.07
2019-02-14T13:11:25.428Z,7.15
2019-02-14T13:16:33.797Z,9.62
2019-02-14T13:21:41.454Z,10.36
2019-02-14T13:26:49.964Z,9.64
2019-02-14T13:31:57.580Z,9.80
2019-02-14T13:37:05.987Z,8.68
2019-02-14T13:42:12.403Z,9.87
2019-02-14T13:47:20.576Z,8.16
2019-02-14T13:52:28.709Z,6.80
2019-02-14T13:57:36.402Z,6.04
2019-02-14T14:02:44.053Z,6.85
2019-02-14T14:07:51.696Z,8.16
2019-02-14T14:13:00.787Z,8.31
2019-02-14T14:18:08.442Z,7.95
2019-02-14T14:23:17.165Z,7.44
2019-02-14T14:28:24.821Z,6.80
2019-02-14T14:33:32.494Z,6.32
2019-02-14T14:38:40.300Z,5.85
2019-02-14T14:43:47.961Z,5.72
2019-02-14T14:48:55.665Z,6.84
2019-02-14T14:54:03.294Z,5.94
2019-02-14T14:59:10.997Z,6.26
2019-02-14T15:04:18.646Z,6.08
2019-02-14T15:09:26.349Z,7.55
2019-02-14T15:14:34.000Z,6.66
2019-02-14T15:19:41.666Z,6.83
2019-02-14T15:24:49.305Z,6.75
2019-02-14T15:29:56.965Z,5.88
2019-02-14T15:35:04.608Z,8.37
2019-02-14T15:40:12.406Z,6.86
2019-02-14T15:45:20.049Z,8.55
2019-02-14T15:50:28.322Z,7.92
2019-02-14T15:55:34.901Z,9.33
2019-02-14T16:00:42.552Z,8.72
2019-02-14T16:05:50.197Z,9.61
2019-02-14T16:10:58.878Z,10.55
2019-02-14T16:16:06.578Z,10.61
2019-02-14T16:21:14.245Z,14.05
2019-02-14T16:26:21.894Z,11.52
2019-02-14T16:31:29.589Z,7.84
2019-02-14T16:36:37.211Z,7.46
2019-02-14T16:41:46.597Z,8.56
2019-02-14T16:46:54.225Z,10.74
2019-02-14T16:52:01.905Z,13.36
2019-02-14T16:57:09.533Z,12.35
2019-02-14T17:02:17.294Z,12.69
2019-02-14T17:07:26.064Z,11.84
2019-02-14T17:12:33.749Z,14.59
2019-02-14T17:17:41.417Z,15.37
2019-02-14T17:22:49.041Z,13.63
2019-02-14T17:27:56.653Z,15.01
2019-02-14T17:33:04.309Z,17.23
2019-02-14T17:38:11.941Z,14.69
2019-02-14T17:43:19.647Z,25.47
2019-02-14T17:48:27.304Z,19.42
2019-02-14T17:53:35.077Z,18.53
2019-02-14T17:58:42.701Z,18.33
2019-02-14T18:03:50.873Z,18.26
2019-02-14T18:08:58.503Z,18.96
2019-02-14T18:14:06.181Z,16.38
2019-02-14T18:19:13.823Z,17.83
2019-02-14T18:24:21.658Z,18.68
2019-02-14T18:29:29.284Z,17.78
2019-02-14T18:34:36.934Z,15.65
2019-02-14T18:39:46.240Z,17.23
2019-02-14T18:44:54.070Z,71.20
2019-02-14T18:50:01.725Z,34.61
2019-02-14T18:55:09.409Z,23.74
2019-02-14T19:00:17.076Z,23.19
2019-02-14T19:05:24.720Z,19.21
2019-02-14T19:10:32.337Z,20.17
2019-02-14T19:15:40.085Z,17.22
2019-02-14T19:20:47.717Z,17.97
2019-02-14T19:25:55.348Z,31.03
2019-02-14T19:31:03.015Z,24.51
2019-02-14T19:36:10.766Z,24.99
2019-02-14T19:41:25.107Z,22.56
2019-02-14T19:46:25.676Z,21.33
2019-02-14T19:51:33.326Z,40.40
2019-02-14T19:56:40.988Z,82.69
2019-02-14T20:01:48.654Z,64.90
2019-02-14T20:06:56.307Z,50.14
2019-02-14T20:12:03.940Z,41.40
2019-02-14T20:17:11.681Z,32.83
2019-02-14T20:22:19.326Z,22.28
2019-02-14T20:27:26.956Z,22.40
2019-02-14T20:32:34.617Z,27.63
2019-02-14T20:37:42.938Z,22.44
2019-02-14T20:42:50.589Z,20.02
2019-02-14T20:47:58.268Z,24.23
2019-02-14T20:53:05.952Z,23.17
2019-02-14T20:58:13.624Z,24.08
2019-02-14T21:03:21.270Z,25.26
2019-02-14T21:08:31.474Z,25.76
2019-02-14T21:13:29.086Z,23.93
2019-02-14T21:18:36.808Z,23.39
2019-02-14T21:23:44.462Z,28.74
2019-02-14T21:28:52.178Z,25.32
2019-02-14T21:33:59.878Z,27.61
2019-02-14T21:39:07.558Z,27.65
2019-02-14T21:44:18.658Z,27.81
2019-02-14T21:49:16.497Z,26.48
2019-02-14T21:54:24.148Z,28.83
2019-02-14T21:59:31.782Z,26.67
2019-02-14T22:04:39.411Z,26.09
2019-02-14T22:09:47.082Z,25.28
2019-02-14T22:14:54.767Z,26.14
2019-02-14T22:20:02.471Z,25.49
2019-02-14T22:25:10.164Z,26.25
2019-02-14T22:30:17.833Z,27.32
2019-02-14T22:35:26.137Z,26.20
2019-02-14T22:40:42.129Z,25.92
2019-02-14T22:45:39.749Z,27.67
2019-02-14T22:50:47.401Z,27.09
2019-02-14T22:56:57.149Z,28.83
2019-02-14T23:02:04.779Z,28.76
2019-02-14T23:07:12.479Z,28.62
2019-02-14T23:12:20.177Z,31.42
2019-02-14T23:17:27.856Z,28.92
2019-02-14T23:22:35.496Z,26.39
2019-02-14T23:27:43.393Z,26.39
2019-02-14T23:32:51.032Z,29.12
2019-02-14T23:37:59.332Z,28.09
2019-02-14T23:43:07.399Z,27.13
2019-02-14T23:48:14.209Z,29.34
2019-02-14T23:53:21.915Z,25.88
2019-02-14T23:58:29.598Z,26.32
